Terminal Aerodrome Forecast
Issued by NWS Jackson, MS

Home | Current Version | Previous Version | Text Only | Print | Product List | Glossary On
Versions: 1 2 3 4 5 6 7 8 9 10 11 12
000
FTUS44 KMEG 301100
TAFTUP
TAF
KTUP 301124Z 3012/3112 00000KT P6SM VCSH BKN050
     FM301600 21005KT P6SM -SHRA VCTS BKN045CB
      TEMPO 3019/3023 2SM TSRA OVC035CB
     FM310500 18005KT 5SM -SHRA BR VCTS SCT015 BKN025CB=

USA.gov is the U.S. government's official web portal to all federal, state and local government web resources and services.